Time;durP1;ratioP1;P1;durP2;ratioP2;P2;SDS_P1;SDS_P2;PMS_P1;PMS_P2;Temp;Humidity;BMP_temperature;BMP_pressure;BME280_temperature;BME280_humidity;BME280_pressure;Samples;Min_cycle;Max_cycle;Signal;HPM_P1;HPM_P2
2023/09/23 00:00:35;;;;;;;10.73;5.93;;;;;;;;;;2570653;23;20035;-93
2023/09/23 00:01:37;;;;;;;8.68;6.32;;;;;;;;;;2569940;23;20009;-93
2023/09/23 00:02:40;;;;;;;9.50;6.05;;;;;;;;;;2557608;23;20005;-94
2023/09/23 00:03:41;;;;;;;8.45;5.80;;;;;;;;;;2573830;23;20039;-94
2023/09/23 00:04:42;;;;;;;10.35;6.10;;;;;;;;;;2569865;23;20079;-93
2023/09/23 00:05:43;;;;;;;7.28;5.35;;;;;;;;;;2569500;23;19988;-94
2023/09/23 00:06:44;;;;;;;7.40;4.93;;;;;;;;;;2573628;23;19992;-93
2023/09/23 00:07:45;;;;;;;8.95;6.32;;;;;;;;;;2569568;23;20012;-94
2023/09/23 00:08:45;;;;;;;12.68;6.30;;;;;;;;;;2573297;23;20066;-94
2023/09/23 00:09:45;;;;;;;9.68;5.68;;;;;;;;;;2569583;23;19992;-94
2023/09/23 00:10:50;;;;;;;11.85;6.25;;;;;;;;;;2557367;23;19993;-94
2023/09/23 00:11:51;;;;;;;8.73;6.05;;;;;;;;;;2558083;23;20031;-93
2023/09/23 00:12:51;;;;;;;7.63;5.47;;;;;;;;;;2557265;23;20008;-94
2023/09/23 00:13:52;;;;;;;9.95;5.72;;;;;;;;;;2557281;23;20001;-93
2023/09/23 00:14:54;;;;;;;10.18;5.60;;;;;;;;;;2557293;23;20446;-93
2023/09/23 00:15:55;;;;;;;9.27;5.55;;;;;;;;;;2557586;23;19997;-94
2023/09/23 00:16:56;;;;;;;8.05;5.88;;;;;;;;;;2557330;23;20058;-93
2023/09/23 00:17:57;;;;;;;9.20;5.97;;;;;;;;;;2572218;23;19992;-93
2023/09/23 00:18:58;;;;;;;11.85;5.65;;;;;;;;;;2569816;23;19988;-94
2023/09/23 00:20:00;;;;;;;8.43;5.93;;;;;;;;;;2569863;23;20435;-94
2023/09/23 00:21:03;;;;;;;9.52;5.75;;;;;;;;;;2557464;23;20005;-93
2023/09/23 00:22:05;;;;;;;7.93;5.55;;;;;;;;;;2569855;23;20115;-93
2023/09/23 00:23:06;;;;;;;9.45;5.57;;;;;;;;;;2557774;23;20012;-94
2023/09/23 00:24:08;;;;;;;11.35;5.40;;;;;;;;;;2557253;23;20028;-94
2023/09/23 00:25:09;;;;;;;8.68;5.47;;;;;;;;;;2557379;23;20090;-93
2023/09/23 00:26:11;;;;;;;9.23;5.28;;;;;;;;;;2556997;23;20009;-93
2023/09/23 00:27:12;;;;;;;9.48;5.28;;;;;;;;;;2571536;23;20001;-93
2023/09/23 00:28:14;;;;;;;7.68;5.22;;;;;;;;;;2572339;23;20008;-94
2023/09/23 00:29:17;;;;;;;10.13;5.30;;;;;;;;;;2569493;23;20331;-93
2023/09/23 00:30:17;;;;;;;8.55;5.60;;;;;;;;;;2569507;23;20063;-94
2023/09/23 00:31:18;;;;;;;5.88;5.18;;;;;;;;;;2569715;23;20418;-94
2023/09/23 00:32:19;;;;;;;6.70;5.85;;;;;;;;;;2557253;23;20024;-93
2023/09/23 00:33:20;;;;;;;8.52;5.38;;;;;;;;;;2557258;23;20009;-94
2023/09/23 00:34:23;;;;;;;11.27;5.50;;;;;;;;;;2557263;23;20414;-94
2023/09/23 00:35:23;;;;;;;8.35;5.20;;;;;;;;;;2569524;23;20009;-92
2023/09/23 00:36:24;;;;;;;11.55;5.15;;;;;;;;;;2580786;23;19988;-91
2023/09/23 00:37:25;;;;;;;11.90;4.93;;;;;;;;;;2148612;23;10007980;-92
2023/09/23 00:38:27;;;;;;;10.60;5.55;;;;;;;;;;2582290;23;20016;-92
2023/09/23 00:39:27;;;;;;;7.97;5.20;;;;;;;;;;2582680;23;19988;-92
2023/09/23 00:40:32;;;;;;;11.00;5.32;;;;;;;;;;2581508;23;20048;-93
2023/09/23 00:41:32;;;;;;;8.80;5.10;;;;;;;;;;2581811;23;20068;-92
2023/09/23 00:42:33;;;;;;;10.63;5.22;;;;;;;;;;2582062;23;20004;-92
2023/09/23 00:43:34;;;;;;;6.10;4.85;;;;;;;;;;2581643;23;20048;-91
2023/09/23 00:44:35;;;;;;;11.60;5.68;;;;;;;;;;2578811;23;20008;-92
2023/09/23 00:45:36;;;;;;;11.55;5.75;;;;;;;;;;2569549;23;20598;-91
2023/09/23 00:46:37;;;;;;;12.38;5.47;;;;;;;;;;2569564;23;20012;-91
2023/09/23 00:47:37;;;;;;;9.38;5.30;;;;;;;;;;2568732;23;20032;-92
2023/09/23 00:48:39;;;;;;;12.20;5.28;;;;;;;;;;2559936;23;20482;-93
2023/09/23 00:49:44;;;;;;;9.85;4.93;;;;;;;;;;2568873;23;20489;-92
2023/09/23 00:50:46;;;;;;;11.07;5.00;;;;;;;;;;2560985;23;20000;-92
2023/09/23 00:51:46;;;;;;;10.05;5.38;;;;;;;;;;2568965;23;20066;-92
2023/09/23 00:52:52;;;;;;;7.88;5.38;;;;;;;;;;2569020;23;19997;-91
2023/09/23 00:53:52;;;;;;;12.13;5.40;;;;;;;;;;2573575;23;20426;-90
2023/09/23 00:54:52;;;;;;;8.25;4.80;;;;;;;;;;2571118;23;20028;-91
2023/09/23 00:55:55;;;;;;;11.23;5.93;;;;;;;;;;2573827;23;20469;-92
2023/09/23 00:56:58;;;;;;;7.13;5.03;;;;;;;;;;2568990;23;20210;-91
2023/09/23 00:58:01;;;;;;;10.38;5.40;;;;;;;;;;2571283;23;20029;-90
2023/09/23 00:59:06;;;;;;;9.98;5.45;;;;;;;;;;2559378;23;20008;-91
2023/09/23 01:00:11;;;;;;;10.23;5.50;;;;;;;;;;2572814;23;20118;-91
2023/09/23 01:01:14;;;;;;;9.93;5.70;;;;;;;;;;2570952;23;20027;-92
2023/09/23 01:02:14;;;;;;;8.45;5.00;;;;;;;;;;2569083;23;20429;-92
2023/09/23 01:03:15;;;;;;;11.80;6.28;;;;;;;;;;2569065;23;20005;-91
2023/09/23 01:04:16;;;;;;;9.02;5.88;;;;;;;;;;2568896;23;20346;-91
2023/09/23 01:05:19;;;;;;;9.20;5.63;;;;;;;;;;2556745;23;20012;-91
2023/09/23 01:06:21;;;;;;;8.68;5.50;;;;;;;;;;2570418;23;20001;-92
2023/09/23 01:07:22;;;;;;;10.73;5.45;;;;;;;;;;2568955;23;20011;-92
2023/09/23 01:08:29;;;;;;;11.32;4.95;;;;;;;;;;2568968;23;20012;-91
2023/09/23 01:09:33;;;;;;;8.48;5.22;;;;;;;;;;2569083;23;20008;-92
2023/09/23 01:10:33;;;;;;;9.27;5.60;;;;;;;;;;2569582;23;20012;-92
2023/09/23 01:11:35;;;;;;;11.38;5.15;;;;;;;;;;2568786;23;20394;-92
2023/09/23 01:12:35;;;;;;;10.25;5.43;;;;;;;;;;2121552;23;10440360;-91
2023/09/23 01:13:36;;;;;;;7.20;5.18;;;;;;;;;;2568914;23;20434;-92
2023/09/23 01:14:36;;;;;;;7.53;5.07;;;;;;;;;;2569241;23;20068;-92
2023/09/23 01:15:40;;;;;;;7.85;5.18;;;;;;;;;;2568968;23;20528;-92
2023/09/23 01:16:41;;;;;;;8.80;5.35;;;;;;;;;;2573039;23;20054;-90
2023/09/23 01:17:48;;;;;;;7.80;5.60;;;;;;;;;;2568762;23;20009;-91
2023/09/23 01:18:49;;;;;;;8.73;4.95;;;;;;;;;;2572285;23;19992;-90
2023/09/23 01:19:52;;;;;;;9.50;5.32;;;;;;;;;;2568653;23;20091;-91
2023/09/23 01:20:56;;;;;;;9.20;4.95;;;;;;;;;;2568731;23;20419;-91
2023/09/23 01:21:57;;;;;;;10.18;5.45;;;;;;;;;;2571956;23;20000;-92
2023/09/23 01:22:58;;;;;;;8.25;5.18;;;;;;;;;;2568673;23;20028;-91
2023/09/23 01:23:58;;;;;;;9.95;5.45;;;;;;;;;;2556431;23;20060;-91
2023/09/23 01:24:58;;;;;;;12.27;5.47;;;;;;;;;;2556302;23;20009;-90
2023/09/23 01:25:59;;;;;;;8.82;5.30;;;;;;;;;;2556341;23;20037;-91
2023/09/23 01:27:00;;;;;;;12.93;5.30;;;;;;;;;;2556230;23;20088;-90
2023/09/23 01:28:03;;;;;;;8.40;5.22;;;;;;;;;;2571522;23;20417;-90
2023/09/23 01:29:04;;;;;;;7.78;5.32;;;;;;;;;;2568719;23;20020;-90
2023/09/23 01:30:06;;;;;;;11.48;5.40;;;;;;;;;;2568591;23;20008;-91
2023/09/23 01:31:07;;;;;;;7.13;5.15;;;;;;;;;;2568775;23;20004;-91
2023/09/23 01:32:30;;;;;;;10.18;5.95;;;;;;;;;;2568689;23;20043;-91
2023/09/23 01:33:31;;;;;;;9.98;6.10;;;;;;;;;;2569628;23;20428;-90
2023/09/23 01:34:32;;;;;;;13.43;5.47;;;;;;;;;;2568598;23;20035;-92
2023/09/23 01:35:33;;;;;;;12.63;5.45;;;;;;;;;;2569246;23;19997;-94
2023/09/23 01:36:37;;;;;;;8.68;5.38;;;;;;;;;;2568891;23;20011;-92
2023/09/23 01:37:37;;;;;;;8.52;5.20;;;;;;;;;;2556822;23;20024;-92
2023/09/23 01:38:41;;;;;;;8.25;5.45;;;;;;;;;;2556141;23;20422;-92
2023/09/23 01:39:41;;;;;;;11.90;5.68;;;;;;;;;;2556712;23;20505;-92
2023/09/23 01:40:43;;;;;;;9.68;5.95;;;;;;;;;;2568693;23;20001;-92
2023/09/23 01:41:44;;;;;;;7.63;4.80;;;;;;;;;;2572176;23;20079;-92
2023/09/23 01:42:46;;;;;;;7.05;4.70;;;;;;;;;;2568491;23;20449;-92
2023/09/23 01:43:46;;;;;;;9.90;5.65;;;;;;;;;;2572140;23;20032;-92
2023/09/23 01:44:48;;;;;;;8.23;5.13;;;;;;;;;;2568746;23;20087;-90
2023/09/23 01:45:49;;;;;;;8.07;5.43;;;;;;;;;;2572122;23;19998;-89
2023/09/23 01:46:49;;;;;;;10.75;6.25;;;;;;;;;;2120419;23;10440158;-92
2023/09/23 01:47:49;;;;;;;11.85;5.93;;;;;;;;;;2572320;23;19993;-92
2023/09/23 01:48:50;;;;;;;12.98;5.25;;;;;;;;;;2572706;23;20004;-92
2023/09/23 01:49:50;;;;;;;8.82;5.40;;;;;;;;;;2568713;23;20004;-92
2023/09/23 01:50:51;;;;;;;9.15;5.15;;;;;;;;;;2556319;23;20015;-92
2023/09/23 01:51:52;;;;;;;8.90;5.07;;;;;;;;;;2556438;23;20435;-93
2023/09/23 01:52:54;;;;;;;12.55;5.07;;;;;;;;;;2572568;23;20342;-94
2023/09/23 01:53:55;;;;;;;7.68;5.28;;;;;;;;;;2569324;23;19997;-94
2023/09/23 01:54:55;;;;;;;7.97;5.30;;;;;;;;;;2556816;23;19993;-94
2023/09/23 01:55:56;;;;;;;11.27;5.95;;;;;;;;;;2572269;23;20020;-93
2023/09/23 01:56:56;;;;;;;12.20;6.35;;;;;;;;;;2568911;23;20075;-93
2023/09/23 01:57:57;;;;;;;11.10;5.85;;;;;;;;;;2556948;23;20001;-93
2023/09/23 01:58:57;;;;;;;8.30;5.10;;;;;;;;;;2569233;23;20012;-93
2023/09/23 01:59:58;;;;;;;10.27;5.30;;;;;;;;;;2569234;23;20051;-93
2023/09/23 02:00:58;;;;;;;8.43;5.43;;;;;;;;;;2569266;23;20078;-93
2023/09/23 02:01:59;;;;;;;11.23;5.63;;;;;;;;;;2569335;23;20378;-93
2023/09/23 02:02:59;;;;;;;11.25;5.53;;;;;;;;;;2556931;23;20071;-94
2023/09/23 02:04:01;;;;;;;12.43;5.57;;;;;;;;;;2569122;23;20012;-93
2023/09/23 02:05:02;;;;;;;8.73;5.28;;;;;;;;;;2584358;23;19996;-94
2023/09/23 02:06:02;;;;;;;9.75;5.43;;;;;;;;;;2569338;23;20087;-93
2023/09/23 02:07:04;;;;;;;10.13;5.20;;;;;;;;;;2569213;23;20165;-93
2023/09/23 02:08:04;;;;;;;7.72;5.15;;;;;;;;;;2569165;23;20004;-95
2023/09/23 02:09:05;;;;;;;11.65;5.72;;;;;;;;;;2569164;23;20420;-93
2023/09/23 02:10:08;;;;;;;7.95;5.20;;;;;;;;;;2569183;23;20008;-93
2023/09/23 02:11:09;;;;;;;12.10;5.25;;;;;;;;;;2557315;23;20072;-93
2023/09/23 02:12:10;;;;;;;8.02;5.70;;;;;;;;;;2556864;23;20009;-94
2023/09/23 02:13:10;;;;;;;8.35;5.38;;;;;;;;;;2556796;23;20063;-93
2023/09/23 02:14:11;;;;;;;10.10;5.43;;;;;;;;;;2569300;23;20005;-93
2023/09/23 02:15:15;;;;;;;15.88;5.70;;;;;;;;;;2569281;23;20024;-94
2023/09/23 02:16:18;;;;;;;9.15;5.53;;;;;;;;;;2557559;23;20001;-93
2023/09/23 02:17:20;;;;;;;10.52;6.07;;;;;;;;;;2569099;23;20000;-93
2023/09/23 02:18:21;;;;;;;9.93;5.90;;;;;;;;;;2568419;23;20012;-93
2023/09/23 02:19:27;;;;;;;8.77;5.97;;;;;;;;;;2570319;23;20000;-94
2023/09/23 02:20:28;;;;;;;12.55;5.20;;;;;;;;;;2569987;23;20010;-94
2023/09/23 02:21:28;;;;;;;9.98;5.70;;;;;;;;;;2569176;23;20398;-93
2023/09/23 02:22:30;;;;;;;10.95;5.38;;;;;;;;;;2569152;23;20060;-94
2023/09/23 02:23:31;;;;;;;12.52;6.07;;;;;;;;;;2557166;23;20073;-93
2023/09/23 02:24:36;;;;;;;10.13;5.05;;;;;;;;;;2569906;23;20039;-94
2023/09/23 02:25:37;;;;;;;11.25;4.93;;;;;;;;;;2569314;23;20050;-93
2023/09/23 02:26:37;;;;;;;8.30;5.35;;;;;;;;;;2569414;23;20005;-93
2023/09/23 02:27:44;;;;;;;8.75;5.10;;;;;;;;;;2568840;23;19997;-93
2023/09/23 02:28:47;;;;;;;7.60;5.00;;;;;;;;;;2569323;23;20011;-93
2023/09/23 02:29:49;;;;;;;7.93;4.95;;;;;;;;;;2569249;23;20016;-94
2023/09/23 02:30:51;;;;;;;8.88;5.50;;;;;;;;;;2556860;23;20490;-94
2023/09/23 02:31:52;;;;;;;10.30;6.13;;;;;;;;;;2572460;23;20043;-93
2023/09/23 02:32:52;;;;;;;9.88;5.47;;;;;;;;;;2569386;23;20000;-93
2023/09/23 02:33:52;;;;;;;7.97;5.63;;;;;;;;;;2573276;23;20015;-90
2023/09/23 02:34:53;;;;;;;11.43;6.13;;;;;;;;;;2571804;23;20508;-91
2023/09/23 02:35:54;;;;;;;8.55;5.78;;;;;;;;;;2572335;23;20000;-91
2023/09/23 02:36:54;;;;;;;7.72;5.43;;;;;;;;;;2569524;23;20363;-93
2023/09/23 02:37:55;;;;;;;8.43;5.55;;;;;;;;;;2556747;23;20035;-95
2023/09/23 02:38:57;;;;;;;8.27;5.00;;;;;;;;;;2557015;23;20549;-93
2023/09/23 02:39:58;;;;;;;10.63;5.63;;;;;;;;;;2558679;23;20001;-92
2023/09/23 02:41:04;;;;;;;11.13;5.50;;;;;;;;;;2571896;23;20013;-92
2023/09/23 02:42:05;;;;;;;9.40;5.43;;;;;;;;;;2572479;23;20007;-92
2023/09/23 02:43:05;;;;;;;11.35;5.95;;;;;;;;;;2569511;23;20004;-93
2023/09/23 02:44:06;;;;;;;9.18;5.55;;;;;;;;;;2569312;23;19996;-92
2023/09/23 02:45:10;;;;;;;10.95;5.70;;;;;;;;;;2568503;23;20019;-92
2023/09/23 02:46:11;;;;;;;10.65;5.55;;;;;;;;;;2568471;23;20227;-91
2023/09/23 02:47:11;;;;;;;11.30;5.38;;;;;;;;;;2570610;23;20005;-91
2023/09/23 02:48:13;;;;;;;11.90;5.40;;;;;;;;;;2568973;23;20001;-91
2023/09/23 02:49:14;;;;;;;11.95;5.45;;;;;;;;;;2556406;23;20066;-91
2023/09/23 02:50:17;;;;;;;9.23;6.00;;;;;;;;;;2556286;23;20001;-91
2023/09/23 02:51:17;;;;;;;12.05;5.55;;;;;;;;;;2556667;23;20009;-91
2023/09/23 02:52:19;;;;;;;12.25;6.18;;;;;;;;;;2556276;23;20056;-91
2023/09/23 02:53:20;;;;;;;11.30;4.97;;;;;;;;;;2570080;23;20012;-92
2023/09/23 02:54:21;;;;;;;8.50;5.43;;;;;;;;;;2570683;23;19997;-93
2023/09/23 02:55:22;;;;;;;10.60;4.93;;;;;;;;;;2568590;23;20008;-92
2023/09/23 02:56:23;;;;;;;10.52;5.68;;;;;;;;;;2562666;23;20119;-92
2023/09/23 02:57:25;;;;;;;8.02;5.07;;;;;;;;;;2568465;23;20059;-91
2023/09/23 02:58:25;;;;;;;11.23;5.00;;;;;;;;;;2556306;23;20001;-92
2023/09/23 02:59:29;;;;;;;8.40;5.45;;;;;;;;;;2556097;23;20394;-91
2023/09/23 03:00:30;;;;;;;14.05;5.68;;;;;;;;;;2568666;23;20087;-92
2023/09/23 03:01:30;;;;;;;11.63;5.90;;;;;;;;;;2569579;23;20008;-92
2023/09/23 03:02:31;;;;;;;8.45;5.30;;;;;;;;;;2570131;23;20009;-90
2023/09/23 03:03:33;;;;;;;8.10;5.30;;;;;;;;;;2568763;23;20063;-92
2023/09/23 03:04:34;;;;;;;12.07;5.18;;;;;;;;;;2569145;23;20004;-91
2023/09/23 03:05:38;;;;;;;9.65;5.70;;;;;;;;;;2568756;23;20063;-93
2023/09/23 03:06:40;;;;;;;7.03;5.20;;;;;;;;;;2556863;23;20430;-93
2023/09/23 03:07:40;;;;;;;9.63;5.00;;;;;;;;;;2572544;23;20156;-91
2023/09/23 03:08:47;;;;;;;9.43;5.80;;;;;;;;;;2568506;23;20398;-92
2023/09/23 03:09:55;;;;;;;9.00;4.78;;;;;;;;;;2560862;23;20005;-91
2023/09/23 03:10:59;;;;;;;12.30;5.45;;;;;;;;;;2568925;23;20005;-92
2023/09/23 03:12:01;;;;;;;9.20;5.30;;;;;;;;;;2556884;23;20364;-92
2023/09/23 03:13:06;;;;;;;9.73;5.13;;;;;;;;;;2568551;23;20174;-92
2023/09/23 03:14:12;;;;;;;11.27;5.93;;;;;;;;;;2570889;23;20027;-91
2023/09/23 03:15:15;;;;;;;8.32;5.65;;;;;;;;;;2568614;23;19996;-92
2023/09/23 03:16:19;;;;;;;10.25;5.57;;;;;;;;;;2556526;23;20001;-91
2023/09/23 03:17:22;;;;;;;9.25;5.97;;;;;;;;;;2568329;23;20354;-91
2023/09/23 03:18:33;;;;;;;10.73;6.10;;;;;;;;;;2568563;23;20396;-91
2023/09/23 03:19:34;;;;;;;12.38;6.18;;;;;;;;;;2569295;23;20011;-91
2023/09/23 03:20:36;;;;;;;10.73;6.03;;;;;;;;;;2568704;23;20011;-91
2023/09/23 03:21:42;;;;;;;7.85;5.43;;;;;;;;;;2568796;23;20000;-92
2023/09/23 03:22:42;;;;;;;8.88;6.07;;;;;;;;;;2568754;23;20008;-92
2023/09/23 03:23:43;;;;;;;13.05;6.72;;;;;;;;;;2568806;23;20273;-92
2023/09/23 03:24:46;;;;;;;13.77;6.43;;;;;;;;;;2568731;23;20004;-91
2023/09/23 03:25:48;;;;;;;11.77;6.35;;;;;;;;;;2572502;23;20024;-91
2023/09/23 03:26:51;;;;;;;11.15;6.40;;;;;;;;;;2568521;23;20371;-92
2023/09/23 03:27:52;;;;;;;12.95;7.40;;;;;;;;;;2572031;23;19996;-91
2023/09/23 03:28:53;;;;;;;12.25;7.32;;;;;;;;;;2568691;23;20058;-92
2023/09/23 03:29:54;;;;;;;11.35;6.82;;;;;;;;;;2572301;23;20066;-91
2023/09/23 03:31:00;;;;;;;12.68;7.22;;;;;;;;;;2568555;23;20004;-92
2023/09/23 03:32:00;;;;;;;14.73;7.85;;;;;;;;;;2571431;23;20071;-91
2023/09/23 03:33:02;;;;;;;16.15;7.80;;;;;;;;;;2568125;23;20376;-91
2023/09/23 03:34:03;;;;;;;17.48;8.63;;;;;;;;;;2556140;23;20001;-91
2023/09/23 03:35:07;;;;;;;19.77;8.88;;;;;;;;;;2568830;23;20415;-92
2023/09/23 03:36:13;;;;;;;17.00;8.82;;;;;;;;;;2570769;23;20008;-92
2023/09/23 03:37:15;;;;;;;17.38;8.48;;;;;;;;;;2569715;23;20008;-91
2023/09/23 03:38:15;;;;;;;14.18;8.10;;;;;;;;;;2582772;23;20355;-92
2023/09/23 03:39:17;;;;;;;12.75;8.15;;;;;;;;;;2571717;23;20003;-92
2023/09/23 03:40:24;;;;;;;12.27;7.72;;;;;;;;;;2571833;23;20008;-91
2023/09/23 03:41:24;;;;;;;12.50;7.90;;;;;;;;;;2569604;23;20277;-91
2023/09/23 03:42:26;;;;;;;14.27;7.75;;;;;;;;;;2569468;23;20193;-91
2023/09/23 03:43:27;;;;;;;13.50;8.05;;;;;;;;;;2569638;23;20362;-91
2023/09/23 03:44:27;;;;;;;14.18;7.88;;;;;;;;;;2557698;23;20059;-94
2023/09/23 03:45:32;;;;;;;12.73;7.85;;;;;;;;;;2557415;23;20399;-93
2023/09/23 03:46:33;;;;;;;11.63;7.82;;;;;;;;;;2558120;23;20009;-94
2023/09/23 03:47:34;;;;;;;12.52;8.02;;;;;;;;;;2570136;23;20007;-92
2023/09/23 03:48:35;;;;;;;14.43;7.97;;;;;;;;;;2557562;23;20381;-92
2023/09/23 03:49:35;;;;;;;13.85;8.57;;;;;;;;;;2570097;23;20001;-90
2023/09/23 03:50:36;;;;;;;11.27;8.18;;;;;;;;;;2582752;23;20126;-93
2023/09/23 03:51:37;;;;;;;13.80;8.10;;;;;;;;;;2569771;23;20004;-93
2023/09/23 03:52:38;;;;;;;11.75;8.05;;;;;;;;;;2557677;23;20005;-93
2023/09/23 03:53:38;;;;;;;13.90;8.32;;;;;;;;;;2564482;23;20028;-90
2023/09/23 03:54:38;;;;;;;12.77;7.95;;;;;;;;;;2581557;23;20001;-91
2023/09/23 03:55:39;;;;;;;11.85;8.23;;;;;;;;;;2581587;23;20064;-90
2023/09/23 03:56:40;;;;;;;11.68;8.55;;;;;;;;;;2598788;22;19996;-91
2023/09/23 03:57:42;;;;;;;13.43;7.72;;;;;;;;;;2582046;23;20009;-91
2023/09/23 03:58:43;;;;;;;17.40;8.13;;;;;;;;;;2582020;23;20056;-91
2023/09/23 03:59:43;;;;;;;14.82;7.60;;;;;;;;;;2585901;23;19988;-92
2023/09/23 04:00:44;;;;;;;11.80;7.75;;;;;;;;;;2586333;23;19981;-91
2023/09/23 04:01:45;;;;;;;13.13;7.80;;;;;;;;;;2586342;23;19992;-91
2023/09/23 04:02:47;;;;;;;10.75;7.88;;;;;;;;;;2571068;23;20082;-91
2023/09/23 04:03:47;;;;;;;15.68;8.38;;;;;;;;;;2573120;23;20031;-89
2023/09/23 04:04:49;;;;;;;12.52;8.13;;;;;;;;;;2578750;23;19996;-92
2023/09/23 04:05:57;;;;;;;12.98;7.68;;;;;;;;;;2582258;23;20015;-91
2023/09/23 04:06:57;;;;;;;13.93;8.45;;;;;;;;;;2569802;23;20031;-90
2023/09/23 04:07:58;;;;;;;14.38;8.13;;;;;;;;;;2572477;23;20712;-91
2023/09/23 04:08:59;;;;;;;14.65;8.77;;;;;;;;;;2569466;23;20013;-90
2023/09/23 04:09:59;;;;;;;14.13;7.85;;;;;;;;;;2569371;23;20099;-90
2023/09/23 04:11:08;;;;;;;12.82;7.15;;;;;;;;;;2572021;23;20008;-90
2023/09/23 04:12:09;;;;;;;14.55;7.40;;;;;;;;;;2572921;23;20010;-91
2023/09/23 04:13:10;;;;;;;12.60;6.93;;;;;;;;;;2558167;23;20004;-92
2023/09/23 04:14:11;;;;;;;11.52;7.63;;;;;;;;;;2557506;23;20012;-93
2023/09/23 04:15:12;;;;;;;13.40;7.68;;;;;;;;;;2557746;23;20031;-91
2023/09/23 04:16:13;;;;;;;10.40;7.05;;;;;;;;;;2569899;23;20004;-93
2023/09/23 04:17:13;;;;;;;11.68;7.05;;;;;;;;;;2569815;23;20000;-92
2023/09/23 04:18:14;;;;;;;11.50;6.97;;;;;;;;;;2570056;23;20123;-93
2023/09/23 04:19:14;;;;;;;13.85;7.88;;;;;;;;;;2571543;23;20426;-93
2023/09/23 04:20:15;;;;;;;14.40;8.13;;;;;;;;;;2569677;23;20066;-93
2023/09/23 04:21:15;;;;;;;11.38;7.55;;;;;;;;;;2569909;23;20004;-93
2023/09/23 04:22:18;;;;;;;16.35;8.77;;;;;;;;;;2569740;23;20008;-94
2023/09/23 04:23:18;;;;;;;13.10;8.05;;;;;;;;;;2557994;23;20001;-94
2023/09/23 04:24:19;;;;;;;12.38;8.18;;;;;;;;;;2570431;23;20008;-95
2023/09/23 04:25:21;;;;;;;16.92;8.80;;;;;;;;;;2571584;23;20532;-94
2023/09/23 04:26:21;;;;;;;12.95;8.35;;;;;;;;;;2571745;23;20012;-93
2023/09/23 04:27:22;;;;;;;11.88;7.78;;;;;;;;;;2560200;23;20001;-91
2023/09/23 04:28:23;;;;;;;9.57;6.93;;;;;;;;;;2558999;23;20052;-94
2023/09/23 04:29:30;;;;;;;12.80;7.15;;;;;;;;;;2571181;23;20421;-93
2023/09/23 04:31:41;;;;;;;13.15;7.32;;;;;;;;;;2579634;23;20004;-90
2023/09/23 04:32:48;;;;;;;13.38;7.32;;;;;;;;;;2562363;23;20020;-94
2023/09/23 04:33:51;;;;;;;10.85;7.20;;;;;;;;;;2557896;23;20005;-94
2023/09/23 04:34:59;;;;;;;9.65;7.00;;;;;;;;;;2558075;23;20087;-92
2023/09/23 04:35:59;;;;;;;9.73;6.97;;;;;;;;;;2559499;23;20009;-91
2023/09/23 04:37:06;;;;;;;12.45;7.38;;;;;;;;;;2557544;23;20065;-94
2023/09/23 04:38:20;;;;;;;11.68;6.50;;;;;;;;;;2559926;23;20005;-92
2023/09/23 04:39:26;;;;;;;13.38;7.80;;;;;;;;;;2557771;23;20084;-93
2023/09/23 04:40:27;;;;;;;13.20;7.75;;;;;;;;;;2557828;23;20013;-92
2023/09/23 04:41:37;;;;;;;14.88;7.90;;;;;;;;;;2557383;23;20056;-92
2023/09/23 04:43:39;;;;;;;11.05;7.32;;;;;;;;;;2570253;23;20411;-93
2023/09/23 04:44:41;;;;;;;15.70;7.80;;;;;;;;;;2569670;23;20068;-91
2023/09/23 04:45:44;;;;;;;13.25;7.55;;;;;;;;;;2557168;23;20005;-91
2023/09/23 04:46:45;;;;;;;15.68;8.23;;;;;;;;;;2573299;23;19996;-91
2023/09/23 04:47:50;;;;;;;12.90;7.32;;;;;;;;;;2569273;23;20009;-92
2023/09/23 04:48:50;;;;;;;12.18;7.10;;;;;;;;;;2569069;23;20011;-91
2023/09/23 04:49:51;;;;;;;10.75;6.88;;;;;;;;;;2556876;23;20028;-91
2023/09/23 04:50:55;;;;;;;12.00;7.22;;;;;;;;;;2572036;23;20071;-91
2023/09/23 04:51:56;;;;;;;14.38;7.28;;;;;;;;;;2569482;23;20391;-91
2023/09/23 04:52:56;;;;;;;15.20;8.13;;;;;;;;;;2551942;23;20005;-92
2023/09/23 04:53:57;;;;;;;15.70;8.25;;;;;;;;;;2120574;23;10460584;-91
2023/09/23 04:54:57;;;;;;;16.23;8.35;;;;;;;;;;2569268;23;20036;-91
2023/09/23 04:55:58;;;;;;;11.55;7.20;;;;;;;;;;2572156;23;20339;-91
2023/09/23 04:56:58;;;;;;;12.40;7.20;;;;;;;;;;2581827;23;20033;-92
2023/09/23 04:57:59;;;;;;;12.57;7.55;;;;;;;;;;2569217;23;20047;-90
2023/09/23 04:59:00;;;;;;;12.68;7.65;;;;;;;;;;2556308;23;20028;-91
2023/09/23 05:00:00;;;;;;;11.68;7.47;;;;;;;;;;2556880;23;20603;-90
2023/09/23 05:01:01;;;;;;;14.05;7.68;;;;;;;;;;2569708;23;20009;-90
2023/09/23 05:02:01;;;;;;;17.70;8.18;;;;;;;;;;2570201;23;20024;-91
2023/09/23 05:03:02;;;;;;;16.30;8.10;;;;;;;;;;2135906;23;10171464;-92
2023/09/23 05:04:08;;;;;;;16.15;8.48;;;;;;;;;;2570041;23;20020;-93
2023/09/23 05:05:11;;;;;;;14.45;8.70;;;;;;;;;;2558297;23;20016;-93
2023/09/23 05:06:12;;;;;;;13.45;7.78;;;;;;;;;;2557955;23;20064;-93
2023/09/23 05:07:13;;;;;;;15.07;7.65;;;;;;;;;;2569604;23;20043;-93
2023/09/23 05:08:14;;;;;;;15.98;7.85;;;;;;;;;;2584278;23;19998;-93
2023/09/23 05:09:16;;;;;;;16.42;8.73;;;;;;;;;;2569542;23;20008;-93
2023/09/23 05:10:17;;;;;;;15.38;8.27;;;;;;;;;;2571173;23;19997;-94
2023/09/23 05:11:18;;;;;;;16.40;9.60;;;;;;;;;;2582294;23;20008;-92
2023/09/23 05:12:19;;;;;;;16.38;9.15;;;;;;;;;;2569608;23;20001;-93
2023/09/23 05:13:19;;;;;;;18.27;9.02;;;;;;;;;;2557156;23;20336;-92
2023/09/23 05:14:20;;;;;;;16.48;8.95;;;;;;;;;;2569654;23;20001;-93
2023/09/23 05:15:21;;;;;;;16.77;9.10;;;;;;;;;;2557453;23;20020;-93
2023/09/23 05:16:22;;;;;;;14.20;8.07;;;;;;;;;;2557048;23;20110;-93
2023/09/23 05:17:26;;;;;;;12.73;8.18;;;;;;;;;;2569623;23;20019;-93
2023/09/23 05:18:26;;;;;;;16.60;9.18;;;;;;;;;;2557756;23;20001;-93
2023/09/23 05:19:27;;;;;;;14.32;8.30;;;;;;;;;;2557091;23;20009;-93
2023/09/23 05:20:39;;;;;;;16.88;8.35;;;;;;;;;;2557273;23;20005;-93
2023/09/23 05:21:39;;;;;;;14.70;8.25;;;;;;;;;;2559487;23;20088;-93
2023/09/23 05:22:40;;;;;;;15.02;8.63;;;;;;;;;;2573891;23;20418;-93
2023/09/23 05:23:44;;;;;;;13.27;8.32;;;;;;;;;;2569644;23;20010;-94
2023/09/23 05:24:50;;;;;;;14.82;8.57;;;;;;;;;;2573173;23;20473;-93
2023/09/23 05:25:50;;;;;;;14.85;8.77;;;;;;;;;;2570979;23;20075;-94
2023/09/23 05:26:51;;;;;;;11.63;7.85;;;;;;;;;;2569644;23;20001;-94
2023/09/23 05:27:54;;;;;;;21.27;8.45;;;;;;;;;;2556692;23;20475;-93
2023/09/23 05:28:56;;;;;;;15.90;7.85;;;;;;;;;;2557605;23;20363;-92
2023/09/23 05:29:56;;;;;;;12.90;8.05;;;;;;;;;;2557212;23;20016;-92
2023/09/23 05:30:59;;;;;;;12.50;7.90;;;;;;;;;;2569650;23;20027;-92
2023/09/23 05:32:00;;;;;;;13.85;8.13;;;;;;;;;;2569339;23;20133;-94
2023/09/23 05:33:02;;;;;;;13.30;7.95;;;;;;;;;;2569694;23;20086;-93
2023/09/23 05:34:04;;;;;;;16.95;8.35;;;;;;;;;;2570362;23;20079;-92
2023/09/23 05:35:10;;;;;;;12.40;7.53;;;;;;;;;;2558444;23;19997;-94
2023/09/23 05:36:14;;;;;;;16.55;8.73;;;;;;;;;;2558322;23;20009;-93
2023/09/23 05:37:14;;;;;;;14.75;8.15;;;;;;;;;;2557723;23;20005;-94
2023/09/23 05:38:15;;;;;;;18.17;8.30;;;;;;;;;;2569480;23;20478;-93
2023/09/23 05:39:18;;;;;;;16.85;8.20;;;;;;;;;;2571472;23;20386;-93
2023/09/23 05:41:24;;;;;;;13.70;7.88;;;;;;;;;;2571054;23;20000;-92
2023/09/23 05:42:25;;;;;;;13.70;8.05;;;;;;;;;;2557583;23;20016;-93
2023/09/23 05:43:26;;;;;;;14.02;7.70;;;;;;;;;;2545961;23;20523;-93
2023/09/23 05:44:26;;;;;;;14.43;8.25;;;;;;;;;;2557264;23;20008;-94
2023/09/23 05:45:27;;;;;;;12.10;7.65;;;;;;;;;;2570969;23;20031;-93
2023/09/23 05:46:28;;;;;;;13.35;7.60;;;;;;;;;;2570555;23;20106;-93
2023/09/23 05:47:28;;;;;;;13.23;8.40;;;;;;;;;;2573692;23;20008;-92
2023/09/23 05:48:33;;;;;;;11.02;7.80;;;;;;;;;;2571548;23;20016;-92
2023/09/23 05:49:33;;;;;;;13.32;7.10;;;;;;;;;;2557414;23;20013;-92
2023/09/23 05:50:34;;;;;;;14.98;7.03;;;;;;;;;;2556550;23;20088;-92
2023/09/23 05:51:34;;;;;;;11.90;7.32;;;;;;;;;;2556675;23;20410;-92
2023/09/23 05:52:36;;;;;;;13.73;7.85;;;;;;;;;;2556541;23;20009;-92
2023/09/23 05:53:37;;;;;;;13.27;6.95;;;;;;;;;;2544694;23;20016;-93
2023/09/23 05:54:37;;;;;;;14.80;7.43;;;;;;;;;;2556610;23;20079;-91
2023/09/23 05:55:37;;;;;;;15.07;6.88;;;;;;;;;;2569446;23;20007;-91
2023/09/23 05:56:38;;;;;;;15.70;7.03;;;;;;;;;;2569208;23;20005;-91
2023/09/23 05:57:40;;;;;;;11.48;6.80;;;;;;;;;;2556477;23;20036;-91
2023/09/23 05:58:40;;;;;;;11.88;6.32;;;;;;;;;;2573029;23;20457;-92
2023/09/23 05:59:40;;;;;;;8.27;6.05;;;;;;;;;;2568840;23;20071;-91
2023/09/23 06:00:46;;;;;;;12.38;6.68;;;;;;;;;;2292309;23;10374153;-91
2023/09/23 06:01:47;;;;;;;11.23;6.43;;;;;;;;;;2571597;23;20217;-91
2023/09/23 06:02:47;;;;;;;13.55;6.90;;;;;;;;;;2561392;23;19999;-92
2023/09/23 06:03:49;;;;;;;10.88;6.72;;;;;;;;;;2561221;23;20000;-92
2023/09/23 06:04:49;;;;;;;10.93;6.93;;;;;;;;;;2549035;23;20076;-91
2023/09/23 06:05:49;;;;;;;14.98;6.75;;;;;;;;;;2569492;23;20346;-92
2023/09/23 06:06:50;;;;;;;13.38;6.78;;;;;;;;;;2572920;23;20050;-92
2023/09/23 06:07:52;;;;;;;11.48;7.32;;;;;;;;;;2569873;23;20007;-93
2023/09/23 06:08:53;;;;;;;15.20;7.50;;;;;;;;;;2566329;23;20066;-93
2023/09/23 06:09:53;;;;;;;12.00;6.70;;;;;;;;;;2545240;23;20060;-93